sensor_id;sensor_type;location;lat;lon;timestamp;pressure;altitude;pressure_sealevel;temperature;humidity
62418;BME280;48456;54.242;10.280;2023-02-25T00:01:59;99684.44;;;1.21;100.00
62418;BME280;48456;54.242;10.280;2023-02-25T00:04:29;99689.94;;;1.38;100.00
62418;BME280;48456;54.242;10.280;2023-02-25T00:06:56;99689.19;;;1.46;100.00
62418;BME280;48456;54.242;10.280;2023-02-25T00:09:22;99689.22;;;1.47;100.00
62418;BME280;48456;54.242;10.280;2023-02-25T00:11:49;99697.03;;;1.49;100.00
62418;BME280;48456;54.242;10.280;2023-02-25T00:14:15;99691.81;;;1.49;100.00
62418;BME280;48456;54.242;10.280;2023-02-25T00:16:41;99702.22;;;1.46;100.00
62418;BME280;48456;54.242;10.280;2023-02-25T00:19:08;99705.66;;;1.43;100.00
62418;BME280;48456;54.242;10.280;2023-02-25T00:21:35;99699.56;;;1.42;100.00
62418;BME280;48456;54.242;10.280;2023-02-25T00:24:02;99698.63;;;1.40;100.00
62418;BME280;48456;54.242;10.280;2023-02-25T00:26:41;99697.69;;;1.35;100.00
62418;BME280;48456;54.242;10.280;2023-02-25T00:29:07;99704.66;;;1.36;100.00
62418;BME280;48456;54.242;10.280;2023-02-25T00:31:34;99714.25;;;1.37;100.00
62418;BME280;48456;54.242;10.280;2023-02-25T00:34:01;99715.09;;;1.36;100.00
62418;BME280;48456;54.242;10.280;2023-02-25T00:36:27;99720.28;;;1.36;100.00
62418;BME280;48456;54.242;10.280;2023-02-25T00:38:54;99732.50;;;1.37;100.00
62418;BME280;48456;54.242;10.280;2023-02-25T00:41:22;99732.38;;;1.31;100.00
62418;BME280;48456;54.242;10.280;2023-02-25T00:43:50;99727.16;;;1.31;100.00
62418;BME280;48456;54.242;10.280;2023-02-25T00:46:16;99721.84;;;1.23;100.00
62418;BME280;48456;54.242;10.280;2023-02-25T00:48:43;99733.16;;;1.24;100.00
62418;BME280;48456;54.242;10.280;2023-02-25T00:51:19;99735.72;;;1.22;100.00
62418;BME280;48456;54.242;10.280;2023-02-25T00:53:46;99745.25;;;1.22;100.00
62418;BME280;48456;54.242;10.280;2023-02-25T00:56:13;99762.59;;;1.20;100.00
62418;BME280;48456;54.242;10.280;2023-02-25T00:58:43;99745.16;;;1.17;100.00
62418;BME280;48456;54.242;10.280;2023-02-25T01:03:46;99760.75;;;1.12;100.00
62418;BME280;48456;54.242;10.280;2023-02-25T01:06:13;99757.13;;;1.04;100.00
62418;BME280;48456;54.242;10.280;2023-02-25T01:08:39;99745.59;;;0.91;100.00
62418;BME280;48456;54.242;10.280;2023-02-25T01:11:16;99757.66;;;0.86;100.00
62418;BME280;48456;54.242;10.280;2023-02-25T01:13:47;99765.44;;;0.84;100.00
62418;BME280;48456;54.242;10.280;2023-02-25T01:16:14;99763.66;;;0.82;100.00
62418;BME280;48456;54.242;10.280;2023-02-25T01:18:41;99771.44;;;0.80;100.00
62418;BME280;48456;54.242;10.280;2023-02-25T01:21:19;99770.63;;;0.83;100.00
62418;BME280;48456;54.242;10.280;2023-02-25T01:23:46;99767.19;;;0.84;100.00
62418;BME280;48456;54.242;10.280;2023-02-25T01:26:13;99775.00;;;0.84;100.00
62418;BME280;48456;54.242;10.280;2023-02-25T01:28:40;99785.28;;;0.77;100.00
62418;BME280;48456;54.242;10.280;2023-02-25T01:31:06;99775.66;;;0.73;100.00
62418;BME280;48456;54.242;10.280;2023-02-25T01:33:34;99771.31;;;0.72;100.00
62418;BME280;48456;54.242;10.280;2023-02-25T01:36:04;99778.22;;;0.72;100.00
62418;BME280;48456;54.242;10.280;2023-02-25T01:38:31;99775.66;;;0.73;100.00
62418;BME280;48456;54.242;10.280;2023-02-25T01:40:58;99782.63;;;0.76;100.00
62418;BME280;48456;54.242;10.280;2023-02-25T01:43:24;99775.75;;;0.78;100.00
62418;BME280;48456;54.242;10.280;2023-02-25T01:45:51;99781.03;;;0.83;100.00
62418;BME280;48456;54.242;10.280;2023-02-25T01:48:19;99781.06;;;0.84;100.00
62418;BME280;48456;54.242;10.280;2023-02-25T01:50:51;99782.84;;;0.85;100.00
62418;BME280;48456;54.242;10.280;2023-02-25T01:53:29;99804.59;;;0.89;100.00
62418;BME280;48456;54.242;10.280;2023-02-25T01:55:58;99797.63;;;0.88;100.00
62418;BME280;48456;54.242;10.280;2023-02-25T01:58:25;99785.53;;;0.92;100.00
62418;BME280;48456;54.242;10.280;2023-02-25T02:00:52;99789.06;;;0.95;100.00
62418;BME280;48456;54.242;10.280;2023-02-25T02:03:22;99797.78;;;0.96;100.00
62418;BME280;48456;54.242;10.280;2023-02-25T02:08:35;99801.16;;;0.92;100.00
62418;BME280;48456;54.242;10.280;2023-02-25T02:11:02;99800.19;;;0.85;100.00
62418;BME280;48456;54.242;10.280;2023-02-25T02:13:29;99792.13;;;0.72;100.00
62418;BME280;48456;54.242;10.280;2023-02-25T02:18:46;99797.16;;;0.63;100.00
62418;BME280;48456;54.242;10.280;2023-02-25T02:24:11;99792.88;;;0.67;100.00
62418;BME280;48456;54.242;10.280;2023-02-25T02:32:12;99790.94;;;0.56;100.00
62418;BME280;48456;54.242;10.280;2023-02-25T02:37:17;99780.75;;;0.67;100.00
62418;BME280;48456;54.242;10.280;2023-02-25T02:47:22;99789.31;;;0.61;100.00
62418;BME280;48456;54.242;10.280;2023-02-25T02:49:52;99791.03;;;0.61;100.00
62418;BME280;48456;54.242;10.280;2023-02-25T02:52:24;99811.88;;;0.62;100.00
62418;BME280;48456;54.242;10.280;2023-02-25T02:54:53;99804.09;;;0.64;100.00
62418;BME280;48456;54.242;10.280;2023-02-25T02:57:21;99816.34;;;0.68;100.00
62418;BME280;48456;54.242;10.280;2023-02-25T02:59:51;99807.75;;;0.72;100.00
62418;BME280;48456;54.242;10.280;2023-02-25T03:02:25;99815.63;;;0.75;100.00
62418;BME280;48456;54.242;10.280;2023-02-25T03:04:54;99807.00;;;0.78;100.00
62418;BME280;48456;54.242;10.280;2023-02-25T03:07:22;99828.75;;;0.82;100.00
62418;BME280;48456;54.242;10.280;2023-02-25T03:09:52;99821.06;;;0.88;100.00
62418;BME280;48456;54.242;10.280;2023-02-25T03:12:20;99811.59;;;0.92;100.00
62418;BME280;48456;54.242;10.280;2023-02-25T03:14:47;99822.91;;;0.94;100.00
62418;BME280;48456;54.242;10.280;2023-02-25T03:17:18;99834.09;;;0.89;100.00
62418;BME280;48456;54.242;10.280;2023-02-25T03:19:58;99842.72;;;0.87;100.00
62418;BME280;48456;54.242;10.280;2023-02-25T03:22:27;99847.94;;;0.85;100.00
62418;BME280;48456;54.242;10.280;2023-02-25T03:30:03;99877.28;;;0.78;100.00
62418;BME280;48456;54.242;10.280;2023-02-25T03:32:31;99865.97;;;0.77;100.00
62418;BME280;48456;54.242;10.280;2023-02-25T03:35:02;99872.94;;;0.78;100.00
62418;BME280;48456;54.242;10.280;2023-02-25T03:37:30;99890.41;;;0.84;100.00
62418;BME280;48456;54.242;10.280;2023-02-25T03:39:58;99880.06;;;0.87;100.00
62418;BME280;48456;54.242;10.280;2023-02-25T03:42:32;99880.16;;;0.90;100.00
62418;BME280;48456;54.242;10.280;2023-02-25T03:45:01;99884.50;;;0.92;100.00
62418;BME280;48456;54.242;10.280;2023-02-25T03:47:29;99886.25;;;0.93;100.00
62418;BME280;48456;54.242;10.280;2023-02-25T03:50:08;99894.13;;;0.96;100.00
62418;BME280;48456;54.242;10.280;2023-02-25T03:52:35;99900.97;;;0.90;100.00
62418;BME280;48456;54.242;10.280;2023-02-25T03:55:02;99903.41;;;0.81;100.00
62418;BME280;48456;54.242;10.280;2023-02-25T03:57:35;99898.97;;;0.78;100.00
62418;BME280;48456;54.242;10.280;2023-02-25T04:00:04;99904.19;;;0.77;100.00
62418;BME280;48456;54.242;10.280;2023-02-25T04:02:40;99906.81;;;0.80;100.00
62418;BME280;48456;54.242;10.280;2023-02-25T04:05:07;99918.19;;;0.84;100.00
62418;BME280;48456;54.242;10.280;2023-02-25T04:07:35;99909.56;;;0.86;100.00
62418;BME280;48456;54.242;10.280;2023-02-25T04:10:02;99915.72;;;0.90;100.00
62418;BME280;48456;54.242;10.280;2023-02-25T04:12:29;99931.50;;;0.98;100.00
62418;BME280;48456;54.242;10.280;2023-02-25T04:14:55;99940.03;;;0.90;100.00
62418;BME280;48456;54.242;10.280;2023-02-25T04:17:22;99937.25;;;0.81;100.00
62418;BME280;48456;54.242;10.280;2023-02-25T04:19:48;99938.03;;;0.77;100.00
62418;BME280;48456;54.242;10.280;2023-02-25T04:22:14;99938.88;;;0.77;100.00
62418;BME280;48456;54.242;10.280;2023-02-25T04:24:41;99947.59;;;0.78;100.00
62418;BME280;48456;54.242;10.280;2023-02-25T04:27:07;99947.66;;;0.81;100.00
62418;BME280;48456;54.242;10.280;2023-02-25T04:29:33;99945.09;;;0.84;100.00
62418;BME280;48456;54.242;10.280;2023-02-25T04:32:00;99946.88;;;0.85;100.00
62418;BME280;48456;54.242;10.280;2023-02-25T04:34:27;99953.06;;;0.90;100.00
62418;BME280;48456;54.242;10.280;2023-02-25T04:36:53;99954.00;;;0.94;100.00
62418;BME280;48456;54.242;10.280;2023-02-25T04:39:19;99944.47;;;0.95;100.00
62418;BME280;48456;54.242;10.280;2023-02-25T04:41:46;99959.25;;;0.96;100.00
62418;BME280;48456;54.242;10.280;2023-02-25T04:44:12;99963.59;;;0.97;100.00
62418;BME280;48456;54.242;10.280;2023-02-25T04:46:39;99965.31;;;0.95;100.00
62418;BME280;48456;54.242;10.280;2023-02-25T04:49:07;99973.13;;;0.95;100.00
62418;BME280;48456;54.242;10.280;2023-02-25T04:51:34;99961.78;;;0.93;100.00
62418;BME280;48456;54.242;10.280;2023-02-25T04:54:02;99960.03;;;0.92;100.00
62418;BME280;48456;54.242;10.280;2023-02-25T04:56:28;99961.72;;;0.91;100.00
62418;BME280;48456;54.242;10.280;2023-02-25T04:58:55;99960.91;;;0.94;100.00
62418;BME280;48456;54.242;10.280;2023-02-25T05:01:22;99962.69;;;0.95;100.00
62418;BME280;48456;54.242;10.280;2023-02-25T05:03:48;99970.56;;;0.96;100.00
62418;BME280;48456;54.242;10.280;2023-02-25T05:06:15;99966.16;;;0.95;100.00
62418;BME280;48456;54.242;10.280;2023-02-25T05:08:41;99970.56;;;0.98;100.00
62418;BME280;48456;54.242;10.280;2023-02-25T05:11:07;99967.94;;;0.96;100.00
62418;BME280;48456;54.242;10.280;2023-02-25T05:13:34;99976.63;;;0.97;100.00
62418;BME280;48456;54.242;10.280;2023-02-25T05:16:07;99978.38;;;0.98;100.00
62418;BME280;48456;54.242;10.280;2023-02-25T05:18:35;99983.56;;;0.96;100.00
62418;BME280;48456;54.242;10.280;2023-02-25T05:21:02;99984.34;;;0.94;100.00
62418;BME280;48456;54.242;10.280;2023-02-25T05:23:28;99984.28;;;0.89;100.00
62418;BME280;48456;54.242;10.280;2023-02-25T05:25:55;99990.28;;;0.86;100.00
62418;BME280;48456;54.242;10.280;2023-02-25T05:28:23;99995.41;;;0.83;100.00
62418;BME280;48456;54.242;10.280;2023-02-25T05:30:50;99994.50;;;0.80;100.00
62418;BME280;48456;54.242;10.280;2023-02-25T05:33:17;100004.78;;;0.75;100.00
62418;BME280;48456;54.242;10.280;2023-02-25T05:35:44;100003.03;;;0.74;100.00
62418;BME280;48456;54.242;10.280;2023-02-25T05:38:10;100001.19;;;0.70;100.00
62418;BME280;48456;54.242;10.280;2023-02-25T05:40:37;100010.72;;;0.69;100.00
62418;BME280;48456;54.242;10.280;2023-02-25T05:43:04;100012.38;;;0.66;100.00
62418;BME280;48456;54.242;10.280;2023-02-25T05:45:30;100021.00;;;0.63;100.00
62418;BME280;48456;54.242;10.280;2023-02-25T05:47:56;100029.63;;;0.60;100.00
62418;BME280;48456;54.242;10.280;2023-02-25T05:50:23;100033.06;;;0.59;100.00
62418;BME280;48456;54.242;10.280;2023-02-25T05:52:49;100055.53;;;0.56;100.00
62418;BME280;48456;54.242;10.280;2023-02-25T05:55:15;100041.28;;;0.40;100.00
62418;BME280;48456;54.242;10.280;2023-02-25T05:57:42;100051.28;;;0.24;100.00
62418;BME280;48456;54.242;10.280;2023-02-25T06:00:09;100067.50;;;0.14;100.00
62418;BME280;48456;54.242;10.280;2023-02-25T06:02:40;100063.00;;;0.08;100.00
62418;BME280;48456;54.242;10.280;2023-02-25T06:05:07;100068.78;;;-0.03;100.00
62418;BME280;48456;54.242;10.280;2023-02-25T06:07:33;100068.78;;;-0.03;100.00
62418;BME280;48456;54.242;10.280;2023-02-25T06:09:59;100063.38;;;-0.10;100.00
62418;BME280;48456;54.242;10.280;2023-02-25T06:12:27;100065.13;;;-0.09;100.00
62418;BME280;48456;54.242;10.280;2023-02-25T06:14:54;100077.31;;;-0.08;100.00
62418;BME280;48456;54.242;10.280;2023-02-25T06:17:20;100080.03;;;-0.04;100.00
62418;BME280;48456;54.242;10.280;2023-02-25T06:19:46;100074.97;;;0.01;100.00
62418;BME280;48456;54.242;10.280;2023-02-25T06:22:13;100076.00;;;0.08;100.00
62418;BME280;48456;54.242;10.280;2023-02-25T06:24:39;100085.72;;;0.14;100.00
62418;BME280;48456;54.242;10.280;2023-02-25T06:27:05;100087.59;;;0.21;100.00
62418;BME280;48456;54.242;10.280;2023-02-25T06:29:32;100097.25;;;0.25;100.00
62418;BME280;48456;54.242;10.280;2023-02-25T06:31:58;100114.72;;;0.29;100.00
62418;BME280;48456;54.242;10.280;2023-02-25T06:34:30;100107.88;;;0.33;100.00
62418;BME280;48456;54.242;10.280;2023-02-25T06:36:58;100113.16;;;0.36;100.00
62418;BME280;48456;54.242;10.280;2023-02-25T06:39:24;100135.00;;;0.41;100.00
62418;BME280;48456;54.242;10.280;2023-02-25T06:41:50;100117.75;;;0.46;100.00
62418;BME280;48456;54.242;10.280;2023-02-25T06:44:17;100116.97;;;0.49;100.00
62418;BME280;48456;54.242;10.280;2023-02-25T06:46:43;100136.97;;;0.51;100.00
62418;BME280;48456;54.242;10.280;2023-02-25T06:49:09;100133.38;;;0.46;100.00
62418;BME280;48456;54.242;10.280;2023-02-25T06:51:37;100138.50;;;0.43;100.00
62418;BME280;48456;54.242;10.280;2023-02-25T06:54:03;100150.69;;;0.46;100.00
62418;BME280;48456;54.242;10.280;2023-02-25T06:56:30;100154.28;;;0.49;100.00
62418;BME280;48456;54.242;10.280;2023-02-25T06:58:56;100158.50;;;0.46;100.00
62418;BME280;48456;54.242;10.280;2023-02-25T07:01:25;100167.06;;;0.42;100.00
62418;BME280;48456;54.242;10.280;2023-02-25T07:03:51;100168.59;;;0.33;100.00
62418;BME280;48456;54.242;10.280;2023-02-25T07:06:18;100167.38;;;0.20;100.00
62418;BME280;48456;54.242;10.280;2023-02-25T07:08:44;100188.91;;;0.15;100.00
62418;BME280;48456;54.242;10.280;2023-02-25T07:13:40;100197.00;;;-0.05;100.00
62418;BME280;48456;54.242;10.280;2023-02-25T07:16:09;100209.72;;;-0.15;100.00
62418;BME280;48456;54.242;10.280;2023-02-25T07:18:35;100224.78;;;-0.33;100.00
62418;BME280;48456;54.242;10.280;2023-02-25T07:21:01;100233.06;;;-0.45;100.00
62418;BME280;48456;54.242;10.280;2023-02-25T07:23:28;100242.38;;;-0.52;100.00
62418;BME280;48456;54.242;10.280;2023-02-25T07:25:54;100249.16;;;-0.57;100.00
62418;BME280;48456;54.242;10.280;2023-02-25T07:28:20;100250.72;;;-0.62;100.00
62418;BME280;48456;54.242;10.280;2023-02-25T07:30:47;100253.38;;;-0.61;100.00
62418;BME280;48456;54.242;10.280;2023-02-25T07:33:13;100269.81;;;-0.60;100.00
62418;BME280;48456;54.242;10.280;2023-02-25T07:35:40;100263.59;;;-0.66;100.00
62418;BME280;48456;54.242;10.280;2023-02-25T07:38:06;100257.69;;;-0.61;100.00
62418;BME280;48456;54.242;10.280;2023-02-25T07:40:32;100257.00;;;-0.56;100.00
62418;BME280;48456;54.242;10.280;2023-02-25T07:42:59;100257.09;;;-0.53;100.00
62418;BME280;48456;54.242;10.280;2023-02-25T07:45:25;100254.59;;;-0.49;100.00
62418;BME280;48456;54.242;10.280;2023-02-25T07:47:52;100270.91;;;-0.54;100.00
62418;BME280;48456;54.242;10.280;2023-02-25T07:50:18;100270.22;;;-0.48;100.00
62418;BME280;48456;54.242;10.280;2023-02-25T07:52:44;100268.47;;;-0.49;100.00
62418;BME280;48456;54.242;10.280;2023-02-25T07:55:11;100268.66;;;-0.43;100.00
62418;BME280;48456;54.242;10.280;2023-02-25T07:57:37;100262.69;;;-0.40;100.00
62418;BME280;48456;54.242;10.280;2023-02-25T08:00:04;100257.69;;;-0.34;100.00
62418;BME280;48456;54.242;10.280;2023-02-25T08:02:35;100270.09;;;-0.25;100.00
62418;BME280;48456;54.242;10.280;2023-02-25T08:05:02;100275.41;;;-0.20;100.00
62418;BME280;48456;54.242;10.280;2023-02-25T08:07:29;100261.78;;;-0.13;100.00
62418;BME280;48456;54.242;10.280;2023-02-25T08:09:55;100275.69;;;-0.11;100.00
62418;BME280;48456;54.242;10.280;2023-02-25T08:12:22;100273.06;;;-0.12;100.00
62418;BME280;48456;54.242;10.280;2023-02-25T08:14:48;100273.06;;;-0.12;100.00
62418;BME280;48456;54.242;10.280;2023-02-25T08:17:14;100288.63;;;-0.14;100.00
62418;BME280;48456;54.242;10.280;2023-02-25T08:19:41;100290.50;;;-0.10;100.00
62418;BME280;48456;54.242;10.280;2023-02-25T08:22:08;100278.44;;;-0.06;100.00
62418;BME280;48456;54.242;10.280;2023-02-25T08:24:37;100287.22;;;-0.03;100.00
62418;BME280;48456;54.242;10.280;2023-02-25T08:27:04;100309.97;;;0.05;100.00
62418;BME280;48456;54.242;10.280;2023-02-25T08:29:32;100300.66;;;0.11;100.00
62418;BME280;48456;54.242;10.280;2023-02-25T08:31:58;100299.13;;;0.18;100.00
62418;BME280;48456;54.242;10.280;2023-02-25T08:34:25;100305.31;;;0.23;100.00
62418;BME280;48456;54.242;10.280;2023-02-25T08:36:51;100310.78;;;0.31;100.00
62418;BME280;48456;54.242;10.280;2023-02-25T08:39:18;100309.97;;;0.34;100.00
62418;BME280;48456;54.242;10.280;2023-02-25T08:41:44;100316.34;;;0.44;100.00
62418;BME280;48456;54.242;10.280;2023-02-25T08:44:11;100310.28;;;0.45;100.00
62418;BME280;48456;54.242;10.280;2023-02-25T08:46:37;100339.06;;;0.49;100.00
62418;BME280;48456;54.242;10.280;2023-02-25T08:49:03;100324.47;;;0.55;100.00
62418;BME280;48456;54.242;10.280;2023-02-25T08:51:30;100335.97;;;0.63;100.00
62418;BME280;48456;54.242;10.280;2023-02-25T08:54:00;100337.88;;;0.69;100.00
62418;BME280;48456;54.242;10.280;2023-02-25T08:56:27;100335.28;;;0.69;100.00
62418;BME280;48456;54.242;10.280;2023-02-25T08:58:54;100369.91;;;0.66;100.00
62418;BME280;48456;54.242;10.280;2023-02-25T09:01:20;100360.47;;;0.70;100.00
62418;BME280;48456;54.242;10.280;2023-02-25T09:03:47;100370.00;;;0.69;100.00
62418;BME280;48456;54.242;10.280;2023-02-25T09:06:21;100369.91;;;0.66;100.00
62418;BME280;48456;54.242;10.280;2023-02-25T09:08:48;100374.03;;;0.58;100.00
62418;BME280;48456;54.242;10.280;2023-02-25T09:11:15;100399.91;;;0.53;100.00
62418;BME280;48456;54.242;10.280;2023-02-25T09:13:42;100383.25;;;0.48;100.00
62418;BME280;48456;54.242;10.280;2023-02-25T09:16:08;100389.00;;;0.37;100.00
62418;BME280;48456;54.242;10.280;2023-02-25T09:18:35;100395.16;;;0.40;100.00
62418;BME280;48456;54.242;10.280;2023-02-25T09:21:01;100395.06;;;0.36;100.00
62418;BME280;48456;54.242;10.280;2023-02-25T09:23:28;100399.97;;;0.27;100.00
62418;BME280;48456;54.242;10.280;2023-02-25T09:25:54;100404.44;;;0.31;100.00
62418;BME280;48456;54.242;10.280;2023-02-25T09:28:20;100418.31;;;0.32;100.00
62418;BME280;48456;54.242;10.280;2023-02-25T09:30:49;100426.13;;;0.32;100.00
62418;BME280;48456;54.242;10.280;2023-02-25T09:33:16;100421.19;;;0.40;100.00
62418;BME280;48456;54.242;10.280;2023-02-25T09:35:42;100418.00;;;0.50;100.00
62418;BME280;48456;54.242;10.280;2023-02-25T09:38:08;100421.00;;;0.62;100.00
62418;BME280;48456;54.242;10.280;2023-02-25T09:40:35;100422.16;;;0.72;100.00
62418;BME280;48456;54.242;10.280;2023-02-25T09:43:04;100434.44;;;0.76;100.00
62418;BME280;48456;54.242;10.280;2023-02-25T09:45:33;100434.47;;;0.78;100.00
62418;BME280;48456;54.242;10.280;2023-02-25T09:48:01;100444.31;;;0.88;100.00
62418;BME280;48456;54.242;10.280;2023-02-25T09:50:35;100452.13;;;0.88;100.00
62418;BME280;48456;54.242;10.280;2023-02-25T09:55:31;100462.53;;;1.17;100.00
62418;BME280;48456;54.242;10.280;2023-02-25T09:58:03;100461.38;;;1.38;100.00
62418;BME280;48456;54.242;10.280;2023-02-25T10:00:33;100457.88;;;1.38;100.00
62418;BME280;48456;54.242;10.280;2023-02-25T10:03:10;100475.44;;;1.45;100.00
62418;BME280;48456;54.242;10.280;2023-02-25T10:10:45;100491.63;;;1.65;100.00
62418;BME280;48456;54.242;10.280;2023-02-25T10:21:52;100517.00;;;2.03;100.00
62418;BME280;48456;54.242;10.280;2023-02-25T10:24:29;100521.50;;;2.11;100.00
62418;BME280;48456;54.242;10.280;2023-02-25T10:27:03;100521.13;;;1.95;100.00
62418;BME280;48456;54.242;10.280;2023-02-25T10:29:43;100531.56;;;1.95;100.00
62418;BME280;48456;54.242;10.280;2023-02-25T10:32:22;100542.38;;;1.77;100.00
62418;BME280;48456;54.242;10.280;2023-02-25T10:34:50;100537.56;;;1.60;100.00
62418;BME280;48456;54.242;10.280;2023-02-25T10:37:21;100549.53;;;1.53;100.00
62418;BME280;48456;54.242;10.280;2023-02-25T10:39:55;100551.84;;;1.42;100.00
62418;BME280;48456;54.242;10.280;2023-02-25T10:42:22;100550.75;;;1.34;100.00
62418;BME280;48456;54.242;10.280;2023-02-25T10:44:49;100559.00;;;1.50;100.00
62418;BME280;48456;54.242;10.280;2023-02-25T10:47:17;100564.75;;;1.68;100.00
62418;BME280;48456;54.242;10.280;2023-02-25T10:52:31;100567.75;;;1.83;100.00
62418;BME280;48456;54.242;10.280;2023-02-25T10:54:57;100570.47;;;1.87;100.00
62418;BME280;48456;54.242;10.280;2023-02-25T10:57:31;100579.13;;;1.86;100.00
62418;BME280;48456;54.242;10.280;2023-02-25T11:00:05;100572.78;;;1.76;100.00
62418;BME280;48456;54.242;10.280;2023-02-25T11:02:35;100596.03;;;1.68;100.00
62418;BME280;48456;54.242;10.280;2023-02-25T11:05:06;100588.25;;;1.70;100.00
62418;BME280;48456;54.242;10.280;2023-02-25T11:10:18;100592.06;;;2.14;100.00
62418;BME280;48456;54.242;10.280;2023-02-25T11:12:48;100585.97;;;2.13;100.00
62418;BME280;48456;54.242;10.280;2023-02-25T11:15:25;100600.59;;;2.08;100.00
62418;BME280;48456;54.242;10.280;2023-02-25T11:18:43;100598.50;;;2.27;100.00
62418;BME280;48456;54.242;10.280;2023-02-25T11:21:10;100605.13;;;2.49;100.00
62418;BME280;48456;54.242;10.280;2023-02-25T11:28:57;100600.78;;;5.10;100.00
62418;BME280;48456;54.242;10.280;2023-02-25T11:31:27;100601.97;;;5.34;100.00
62418;BME280;48456;54.242;10.280;2023-02-25T11:33:55;100615.81;;;4.65;100.00
62418;BME280;48456;54.242;10.280;2023-02-25T11:36:28;100620.63;;;3.52;100.00
62418;BME280;48456;54.242;10.280;2023-02-25T11:41:36;100626.34;;;2.60;100.00
62418;BME280;48456;54.242;10.280;2023-02-25T11:44:18;100620.06;;;3.67;100.00
62418;BME280;48456;54.242;10.280;2023-02-25T11:46:53;100630.03;;;3.44;100.00
62418;BME280;48456;54.242;10.280;2023-02-25T11:49:25;100639.94;;;2.82;100.00
62418;BME280;48456;54.242;10.280;2023-02-25T11:51:58;100641.50;;;3.50;100.00
62418;BME280;48456;54.242;10.280;2023-02-25T11:57:15;100630.44;;;5.06;100.00
62418;BME280;48456;54.242;10.280;2023-02-25T12:02:25;100646.56;;;4.77;100.00
62418;BME280;48456;54.242;10.280;2023-02-25T12:05:41;100650.38;;;3.99;100.00
62418;BME280;48456;54.242;10.280;2023-02-25T12:07:46;100657.75;;;3.00;100.00
62418;BME280;48456;54.242;10.280;2023-02-25T12:13:41;100662.28;;;3.84;100.00
62418;BME280;48456;54.242;10.280;2023-02-25T12:16:20;100660.09;;;4.51;100.00
62418;BME280;48456;54.242;10.280;2023-02-25T13:07:12;100672.31;;;4.52;100.00
62418;BME280;48456;54.242;10.280;2023-02-25T13:12:42;100699.59;;;4.17;100.00
62418;BME280;48456;54.242;10.280;2023-02-25T13:26:28;100704.13;;;7.57;100.00
62418;BME280;48456;54.242;10.280;2023-02-25T13:29:17;100715.50;;;7.54;100.00
62418;BME280;48456;54.242;10.280;2023-02-25T13:31:54;100715.75;;;6.77;100.00
62418;BME280;48456;54.242;10.280;2023-02-25T13:34:35;100732.72;;;5.65;100.00
62418;BME280;48456;54.242;10.280;2023-02-25T13:42:44;100734.59;;;3.81;100.00
62418;BME280;48456;54.242;10.280;2023-02-25T14:06:41;100748.19;;;5.44;100.00
62418;BME280;48456;54.242;10.280;2023-02-25T14:12:08;100763.09;;;4.96;100.00
62418;BME280;48456;54.242;10.280;2023-02-25T14:14:47;100766.44;;;4.42;100.00
62418;BME280;48456;54.242;10.280;2023-02-25T14:27:35;100793.00;;;3.07;100.00
62418;BME280;48456;54.242;10.280;2023-02-25T14:35:24;100795.19;;;3.25;100.00
62418;BME280;48456;54.242;10.280;2023-02-25T14:48:43;100822.31;;;2.34;100.00
62418;BME280;48456;54.242;10.280;2023-02-25T15:07:23;100848.44;;;2.95;100.00
62418;BME280;48456;54.242;10.280;2023-02-25T15:15:11;100841.38;;;2.31;100.00
62418;BME280;48456;54.242;10.280;2023-02-25T15:20:25;100848.84;;;3.45;100.00
62418;BME280;48456;54.242;10.280;2023-02-25T15:33:36;100873.03;;;1.86;100.00
62418;BME280;48456;54.242;10.280;2023-02-25T15:41:29;100881.56;;;1.54;100.00
62418;BME280;48456;54.242;10.280;2023-02-25T15:49:20;100889.28;;;1.51;100.00
62418;BME280;48456;54.242;10.280;2023-02-25T15:56:56;100900.53;;;1.24;100.00
62418;BME280;48456;54.242;10.280;2023-02-25T15:59:45;100911.53;;;1.16;100.00
62418;BME280;48456;54.242;10.280;2023-02-25T16:07:20;100914.59;;;1.05;100.00
62418;BME280;48456;54.242;10.280;2023-02-25T16:09:51;100918.13;;;1.07;100.00
62418;BME280;48456;54.242;10.280;2023-02-25T16:12:19;100924.13;;;1.04;100.00
62418;BME280;48456;54.242;10.280;2023-02-25T16:14:46;100923.22;;;1.03;100.00
62418;BME280;48456;54.242;10.280;2023-02-25T16:17:14;100922.34;;;1.03;100.00
62418;BME280;48456;54.242;10.280;2023-02-25T16:19:41;100935.25;;;1.00;100.00
62418;BME280;48456;54.242;10.280;2023-02-25T16:22:13;100923.88;;;0.98;100.00
62418;BME280;48456;54.242;10.280;2023-02-25T16:24:45;100930.81;;;0.97;100.00
62418;BME280;48456;54.242;10.280;2023-02-25T16:27:34;100940.34;;;0.97;100.00
62418;BME280;48456;54.242;10.280;2023-02-25T16:32:57;100948.09;;;0.95;100.00
62418;BME280;48456;54.242;10.280;2023-02-25T16:38:02;100954.22;;;0.96;100.00
62418;BME280;48456;54.242;10.280;2023-02-25T16:40:39;100968.53;;;1.07;100.00
62418;BME280;48456;54.242;10.280;2023-02-25T16:43:10;100960.66;;;1.06;100.00
62418;BME280;48456;54.242;10.280;2023-02-25T16:45:59;100970.19;;;1.05;100.00
62418;BME280;48456;54.242;10.280;2023-02-25T16:48:29;100968.53;;;1.07;100.00
62418;BME280;48456;54.242;10.280;2023-02-25T16:50:58;100979.88;;;1.09;100.00
62418;BME280;48456;54.242;10.280;2023-02-25T16:53:32;100976.16;;;1.02;100.00
62418;BME280;48456;54.242;10.280;2023-02-25T16:55:58;100990.44;;;0.89;100.00
62418;BME280;48456;54.242;10.280;2023-02-25T16:58:26;100983.09;;;0.79;100.00
62418;BME280;48456;54.242;10.280;2023-02-25T17:00:57;100988.91;;;0.72;100.00
62418;BME280;48456;54.242;10.280;2023-02-25T17:03:28;100994.38;;;0.57;100.00
62418;BME280;48456;54.242;10.280;2023-02-25T17:08:25;100998.16;;;0.42;100.00